sensor_id;sensor_type;location;lat;lon;timestamp;P1;durP1;ratioP1;P2;durP2;ratioP2
9310;SDS011;4694;52.464;13.480;2023-09-19T00:00:41;3.47;;;1.63;;
9310;SDS011;4694;52.464;13.480;2023-09-19T00:03:10;3.10;;;1.25;;
9310;SDS011;4694;52.464;13.480;2023-09-19T00:05:37;4.78;;;1.83;;
9310;SDS011;4694;52.464;13.480;2023-09-19T00:08:05;4.82;;;2.72;;
9310;SDS011;4694;52.464;13.480;2023-09-19T00:10:33;5.05;;;2.08;;
9310;SDS011;4694;52.464;13.480;2023-09-19T00:13:01;3.47;;;1.05;;
9310;SDS011;4694;52.464;13.480;2023-09-19T00:15:30;2.47;;;1.23;;
9310;SDS011;4694;52.464;13.480;2023-09-19T00:18:02;3.22;;;1.45;;
9310;SDS011;4694;52.464;13.480;2023-09-19T00:20:38;3.63;;;1.35;;
9310;SDS011;4694;52.464;13.480;2023-09-19T00:23:06;4.85;;;1.42;;
9310;SDS011;4694;52.464;13.480;2023-09-19T00:25:34;3.20;;;1.50;;
9310;SDS011;4694;52.464;13.480;2023-09-19T00:28:02;6.13;;;2.25;;
9310;SDS011;4694;52.464;13.480;2023-09-19T00:30:29;2.97;;;1.20;;
9310;SDS011;4694;52.464;13.480;2023-09-19T00:32:56;4.22;;;1.40;;
9310;SDS011;4694;52.464;13.480;2023-09-19T00:35:23;8.15;;;2.00;;
9310;SDS011;4694;52.464;13.480;2023-09-19T00:37:53;3.58;;;1.35;;
9310;SDS011;4694;52.464;13.480;2023-09-19T00:40:20;3.88;;;1.60;;
9310;SDS011;4694;52.464;13.480;2023-09-19T00:42:48;3.20;;;1.30;;
9310;SDS011;4694;52.464;13.480;2023-09-19T00:45:16;5.68;;;2.83;;
9310;SDS011;4694;52.464;13.480;2023-09-19T00:47:44;3.63;;;1.77;;
9310;SDS011;4694;52.464;13.480;2023-09-19T00:50:11;4.03;;;1.35;;
9310;SDS011;4694;52.464;13.480;2023-09-19T00:52:42;1.80;;;1.17;;
9310;SDS011;4694;52.464;13.480;2023-09-19T00:55:12;2.58;;;1.45;;
9310;SDS011;4694;52.464;13.480;2023-09-19T00:57:44;2.55;;;1.75;;
9310;SDS011;4694;52.464;13.480;2023-09-19T01:00:11;3.97;;;1.63;;
9310;SDS011;4694;52.464;13.480;2023-09-19T01:02:40;4.90;;;1.58;;
9310;SDS011;4694;52.464;13.480;2023-09-19T01:05:08;4.60;;;1.58;;
9310;SDS011;4694;52.464;13.480;2023-09-19T01:07:35;5.68;;;1.50;;
9310;SDS011;4694;52.464;13.480;2023-09-19T01:10:06;2.25;;;1.63;;
9310;SDS011;4694;52.464;13.480;2023-09-19T01:12:40;5.47;;;2.10;;
9310;SDS011;4694;52.464;13.480;2023-09-19T01:15:16;2.72;;;1.60;;
9310;SDS011;4694;52.464;13.480;2023-09-19T01:17:48;3.10;;;2.58;;
9310;SDS011;4694;52.464;13.480;2023-09-19T01:20:26;2.88;;;1.55;;
9310;SDS011;4694;52.464;13.480;2023-09-19T01:23:07;2.47;;;1.20;;
9310;SDS011;4694;52.464;13.480;2023-09-19T01:25:50;5.05;;;1.92;;
9310;SDS011;4694;52.464;13.480;2023-09-19T01:28:51;2.50;;;1.42;;
9310;SDS011;4694;52.464;13.480;2023-09-19T01:31:25;3.75;;;1.42;;
9310;SDS011;4694;52.464;13.480;2023-09-19T01:34:00;5.80;;;1.80;;
9310;SDS011;4694;52.464;13.480;2023-09-19T01:36:29;3.92;;;1.55;;
9310;SDS011;4694;52.464;13.480;2023-09-19T01:38:59;3.30;;;1.63;;
9310;SDS011;4694;52.464;13.480;2023-09-19T01:41:35;5.20;;;1.58;;
9310;SDS011;4694;52.464;13.480;2023-09-19T01:44:12;3.67;;;1.48;;
9310;SDS011;4694;52.464;13.480;2023-09-19T01:46:49;5.07;;;2.20;;
9310;SDS011;4694;52.464;13.480;2023-09-19T01:49:19;3.17;;;1.50;;
9310;SDS011;4694;52.464;13.480;2023-09-19T01:51:56;2.30;;;1.30;;
9310;SDS011;4694;52.464;13.480;2023-09-19T01:54:31;1.67;;;1.35;;
9310;SDS011;4694;52.464;13.480;2023-09-19T01:57:05;2.65;;;1.77;;
9310;SDS011;4694;52.464;13.480;2023-09-19T01:59:38;9.85;;;1.35;;
9310;SDS011;4694;52.464;13.480;2023-09-19T02:02:16;2.50;;;1.60;;
9310;SDS011;4694;52.464;13.480;2023-09-19T02:04:43;3.72;;;1.70;;
9310;SDS011;4694;52.464;13.480;2023-09-19T02:07:10;4.78;;;1.75;;
9310;SDS011;4694;52.464;13.480;2023-09-19T02:09:37;5.28;;;1.73;;
9310;SDS011;4694;52.464;13.480;2023-09-19T02:12:04;3.80;;;1.80;;
9310;SDS011;4694;52.464;13.480;2023-09-19T02:14:32;8.50;;;3.92;;
9310;SDS011;4694;52.464;13.480;2023-09-19T02:17:01;3.40;;;1.60;;
9310;SDS011;4694;52.464;13.480;2023-09-19T02:19:29;3.28;;;1.65;;
9310;SDS011;4694;52.464;13.480;2023-09-19T02:21:58;5.55;;;2.17;;
9310;SDS011;4694;52.464;13.480;2023-09-19T02:24:27;3.33;;;1.73;;
9310;SDS011;4694;52.464;13.480;2023-09-19T02:26:54;3.67;;;2.15;;
9310;SDS011;4694;52.464;13.480;2023-09-19T02:29:23;5.60;;;1.33;;
9310;SDS011;4694;52.464;13.480;2023-09-19T02:31:51;2.78;;;1.48;;
9310;SDS011;4694;52.464;13.480;2023-09-19T02:34:21;4.45;;;1.70;;
9310;SDS011;4694;52.464;13.480;2023-09-19T02:36:49;4.55;;;1.60;;
9310;SDS011;4694;52.464;13.480;2023-09-19T02:39:17;4.90;;;1.77;;
9310;SDS011;4694;52.464;13.480;2023-09-19T02:41:44;3.97;;;1.40;;
9310;SDS011;4694;52.464;13.480;2023-09-19T02:44:12;3.67;;;1.75;;
9310;SDS011;4694;52.464;13.480;2023-09-19T02:46:39;2.63;;;1.40;;
9310;SDS011;4694;52.464;13.480;2023-09-19T02:49:07;3.55;;;2.05;;
9310;SDS011;4694;52.464;13.480;2023-09-19T02:51:34;4.55;;;2.22;;
9310;SDS011;4694;52.464;13.480;2023-09-19T02:54:02;4.00;;;2.20;;
9310;SDS011;4694;52.464;13.480;2023-09-19T02:56:29;3.08;;;1.45;;
9310;SDS011;4694;52.464;13.480;2023-09-19T02:58:57;8.52;;;2.13;;
9310;SDS011;4694;52.464;13.480;2023-09-19T03:01:25;4.80;;;2.13;;
9310;SDS011;4694;52.464;13.480;2023-09-19T03:03:52;5.53;;;1.90;;
9310;SDS011;4694;52.464;13.480;2023-09-19T03:06:18;3.13;;;1.83;;
9310;SDS011;4694;52.464;13.480;2023-09-19T03:08:46;3.72;;;1.85;;
9310;SDS011;4694;52.464;13.480;2023-09-19T03:11:15;6.15;;;2.13;;
9310;SDS011;4694;52.464;13.480;2023-09-19T03:13:46;3.13;;;2.00;;
9310;SDS011;4694;52.464;13.480;2023-09-19T03:18:44;7.03;;;2.10;;
9310;SDS011;4694;52.464;13.480;2023-09-19T03:21:12;4.05;;;2.10;;
9310;SDS011;4694;52.464;13.480;2023-09-19T03:23:39;4.60;;;2.20;;
9310;SDS011;4694;52.464;13.480;2023-09-19T03:26:06;2.55;;;1.20;;
9310;SDS011;4694;52.464;13.480;2023-09-19T03:28:34;4.93;;;1.70;;
9310;SDS011;4694;52.464;13.480;2023-09-19T03:31:01;2.42;;;1.48;;
9310;SDS011;4694;52.464;13.480;2023-09-19T03:33:28;4.50;;;1.60;;
9310;SDS011;4694;52.464;13.480;2023-09-19T03:35:57;4.47;;;2.28;;
9310;SDS011;4694;52.464;13.480;2023-09-19T03:38:24;3.83;;;1.95;;
9310;SDS011;4694;52.464;13.480;2023-09-19T03:40:51;5.88;;;2.95;;
9310;SDS011;4694;52.464;13.480;2023-09-19T03:43:18;7.65;;;3.78;;
9310;SDS011;4694;52.464;13.480;2023-09-19T03:45:46;7.50;;;4.10;;
9310;SDS011;4694;52.464;13.480;2023-09-19T03:48:14;11.60;;;6.18;;
9310;SDS011;4694;52.464;13.480;2023-09-19T03:50:41;10.02;;;5.45;;
9310;SDS011;4694;52.464;13.480;2023-09-19T03:53:09;12.65;;;4.10;;
9310;SDS011;4694;52.464;13.480;2023-09-19T03:55:35;6.22;;;3.05;;
9310;SDS011;4694;52.464;13.480;2023-09-19T03:58:03;5.85;;;2.40;;
9310;SDS011;4694;52.464;13.480;2023-09-19T04:00:30;2.13;;;1.08;;
9310;SDS011;4694;52.464;13.480;2023-09-19T04:02:58;1.65;;;1.33;;
9310;SDS011;4694;52.464;13.480;2023-09-19T04:05:27;3.92;;;1.05;;
9310;SDS011;4694;52.464;13.480;2023-09-19T04:07:54;3.80;;;1.23;;
9310;SDS011;4694;52.464;13.480;2023-09-19T04:10:21;2.67;;;1.38;;
9310;SDS011;4694;52.464;13.480;2023-09-19T04:12:50;7.55;;;1.40;;
9310;SDS011;4694;52.464;13.480;2023-09-19T04:15:19;3.30;;;1.48;;
9310;SDS011;4694;52.464;13.480;2023-09-19T04:17:48;4.25;;;0.82;;
9310;SDS011;4694;52.464;13.480;2023-09-19T04:20:16;1.85;;;1.52;;
9310;SDS011;4694;52.464;13.480;2023-09-19T04:22:46;1.90;;;1.10;;
9310;SDS011;4694;52.464;13.480;2023-09-19T04:25:13;1.95;;;1.10;;
9310;SDS011;4694;52.464;13.480;2023-09-19T04:27:39;2.85;;;1.42;;
9310;SDS011;4694;52.464;13.480;2023-09-19T04:30:07;3.17;;;1.38;;
9310;SDS011;4694;52.464;13.480;2023-09-19T04:32:37;3.22;;;2.08;;
9310;SDS011;4694;52.464;13.480;2023-09-19T04:35:05;8.25;;;3.60;;
9310;SDS011;4694;52.464;13.480;2023-09-19T04:37:36;4.95;;;3.15;;
9310;SDS011;4694;52.464;13.480;2023-09-19T04:40:05;6.15;;;1.95;;
9310;SDS011;4694;52.464;13.480;2023-09-19T04:42:37;5.97;;;2.10;;
9310;SDS011;4694;52.464;13.480;2023-09-19T04:45:05;7.93;;;3.00;;
9310;SDS011;4694;52.464;13.480;2023-09-19T04:47:32;8.95;;;3.72;;
9310;SDS011;4694;52.464;13.480;2023-09-19T04:49:58;5.57;;;3.40;;
9310;SDS011;4694;52.464;13.480;2023-09-19T04:52:25;8.60;;;4.82;;
9310;SDS011;4694;52.464;13.480;2023-09-19T04:54:53;5.07;;;3.00;;
9310;SDS011;4694;52.464;13.480;2023-09-19T04:57:20;10.50;;;5.03;;
9310;SDS011;4694;52.464;13.480;2023-09-19T04:59:46;12.32;;;5.38;;
9310;SDS011;4694;52.464;13.480;2023-09-19T05:02:13;11.70;;;6.03;;
9310;SDS011;4694;52.464;13.480;2023-09-19T05:04:40;9.32;;;5.55;;
9310;SDS011;4694;52.464;13.480;2023-09-19T05:07:06;5.03;;;2.95;;
9310;SDS011;4694;52.464;13.480;2023-09-19T05:09:33;4.53;;;2.35;;
9310;SDS011;4694;52.464;13.480;2023-09-19T05:12:04;6.95;;;2.75;;
9310;SDS011;4694;52.464;13.480;2023-09-19T05:14:31;3.42;;;1.70;;
9310;SDS011;4694;52.464;13.480;2023-09-19T05:16:58;2.03;;;0.82;;
9310;SDS011;4694;52.464;13.480;2023-09-19T05:19:24;3.17;;;1.63;;
9310;SDS011;4694;52.464;13.480;2023-09-19T05:21:51;5.13;;;1.75;;
9310;SDS011;4694;52.464;13.480;2023-09-19T05:24:18;3.58;;;1.60;;
9310;SDS011;4694;52.464;13.480;2023-09-19T05:26:44;4.63;;;1.42;;
9310;SDS011;4694;52.464;13.480;2023-09-19T05:29:12;3.25;;;1.60;;
9310;SDS011;4694;52.464;13.480;2023-09-19T05:31:39;4.53;;;1.40;;
9310;SDS011;4694;52.464;13.480;2023-09-19T05:34:07;5.50;;;1.60;;
9310;SDS011;4694;52.464;13.480;2023-09-19T05:36:34;4.22;;;1.67;;
9310;SDS011;4694;52.464;13.480;2023-09-19T05:39:01;3.97;;;1.00;;
9310;SDS011;4694;52.464;13.480;2023-09-19T05:41:28;2.88;;;1.20;;
9310;SDS011;4694;52.464;13.480;2023-09-19T05:43:55;8.38;;;1.95;;
9310;SDS011;4694;52.464;13.480;2023-09-19T05:46:26;4.43;;;1.60;;
9310;SDS011;4694;52.464;13.480;2023-09-19T05:48:54;6.75;;;1.50;;
9310;SDS011;4694;52.464;13.480;2023-09-19T05:51:21;5.43;;;1.52;;
9310;SDS011;4694;52.464;13.480;2023-09-19T05:53:50;5.28;;;1.33;;
9310;SDS011;4694;52.464;13.480;2023-09-19T05:56:17;1.40;;;1.05;;
9310;SDS011;4694;52.464;13.480;2023-09-19T05:58:44;3.67;;;1.33;;
9310;SDS011;4694;52.464;13.480;2023-09-19T06:01:11;3.40;;;1.73;;
9310;SDS011;4694;52.464;13.480;2023-09-19T06:03:39;2.88;;;1.80;;
9310;SDS011;4694;52.464;13.480;2023-09-19T06:06:06;1.25;;;1.10;;
9310;SDS011;4694;52.464;13.480;2023-09-19T06:08:33;2.33;;;1.10;;
9310;SDS011;4694;52.464;13.480;2023-09-19T06:10:59;3.70;;;1.30;;
9310;SDS011;4694;52.464;13.480;2023-09-19T06:13:27;4.28;;;1.50;;
9310;SDS011;4694;52.464;13.480;2023-09-19T06:15:54;2.10;;;1.90;;
9310;SDS011;4694;52.464;13.480;2023-09-19T06:18:21;3.63;;;1.33;;
9310;SDS011;4694;52.464;13.480;2023-09-19T06:20:52;1.97;;;1.00;;
9310;SDS011;4694;52.464;13.480;2023-09-19T06:23:20;4.35;;;0.82;;
9310;SDS011;4694;52.464;13.480;2023-09-19T06:25:48;4.13;;;1.73;;
9310;SDS011;4694;52.464;13.480;2023-09-19T06:28:14;2.15;;;1.40;;
9310;SDS011;4694;52.464;13.480;2023-09-19T06:30:45;2.25;;;1.25;;
9310;SDS011;4694;52.464;13.480;2023-09-19T06:33:12;5.15;;;1.02;;
9310;SDS011;4694;52.464;13.480;2023-09-19T06:35:39;3.65;;;0.82;;
9310;SDS011;4694;52.464;13.480;2023-09-19T06:38:07;2.53;;;1.10;;
9310;SDS011;4694;52.464;13.480;2023-09-19T06:40:34;4.50;;;1.48;;
9310;SDS011;4694;52.464;13.480;2023-09-19T06:43:01;3.33;;;1.05;;
9310;SDS011;4694;52.464;13.480;2023-09-19T06:45:28;2.00;;;1.10;;
9310;SDS011;4694;52.464;13.480;2023-09-19T06:47:54;3.75;;;1.33;;
9310;SDS011;4694;52.464;13.480;2023-09-19T06:50:23;2.42;;;1.20;;
9310;SDS011;4694;52.464;13.480;2023-09-19T06:52:50;2.90;;;1.52;;
9310;SDS011;4694;52.464;13.480;2023-09-19T06:55:20;4.60;;;1.05;;
9310;SDS011;4694;52.464;13.480;2023-09-19T06:57:50;2.10;;;1.20;;
9310;SDS011;4694;52.464;13.480;2023-09-19T07:00:17;4.38;;;0.98;;
9310;SDS011;4694;52.464;13.480;2023-09-19T07:02:54;3.08;;;1.50;;
9310;SDS011;4694;52.464;13.480;2023-09-19T07:05:22;5.10;;;2.22;;
9310;SDS011;4694;52.464;13.480;2023-09-19T07:07:49;2.17;;;1.50;;
9310;SDS011;4694;52.464;13.480;2023-09-19T07:10:16;2.38;;;1.00;;
9310;SDS011;4694;52.464;13.480;2023-09-19T07:12:44;3.92;;;1.23;;
9310;SDS011;4694;52.464;13.480;2023-09-19T07:15:11;3.53;;;1.33;;
9310;SDS011;4694;52.464;13.480;2023-09-19T07:17:38;3.03;;;1.45;;
9310;SDS011;4694;52.464;13.480;2023-09-19T07:20:05;4.13;;;1.38;;
9310;SDS011;4694;52.464;13.480;2023-09-19T07:22:33;1.90;;;1.52;;
9310;SDS011;4694;52.464;13.480;2023-09-19T07:24:59;2.38;;;1.38;;
9310;SDS011;4694;52.464;13.480;2023-09-19T07:27:26;3.58;;;1.42;;
9310;SDS011;4694;52.464;13.480;2023-09-19T07:29:54;5.13;;;1.40;;
9310;SDS011;4694;52.464;13.480;2023-09-19T07:32:21;5.38;;;1.33;;
9310;SDS011;4694;52.464;13.480;2023-09-19T07:34:48;3.30;;;1.50;;
9310;SDS011;4694;52.464;13.480;2023-09-19T07:37:15;3.80;;;1.77;;
9310;SDS011;4694;52.464;13.480;2023-09-19T07:39:41;4.53;;;1.95;;
9310;SDS011;4694;52.464;13.480;2023-09-19T07:42:09;4.03;;;3.67;;
9310;SDS011;4694;52.464;13.480;2023-09-19T07:44:42;5.07;;;2.15;;
9310;SDS011;4694;52.464;13.480;2023-09-19T07:47:13;3.20;;;1.95;;
9310;SDS011;4694;52.464;13.480;2023-09-19T07:49:39;3.10;;;1.67;;
9310;SDS011;4694;52.464;13.480;2023-09-19T07:52:07;5.68;;;1.77;;
9310;SDS011;4694;52.464;13.480;2023-09-19T07:54:35;4.15;;;1.88;;
9310;SDS011;4694;52.464;13.480;2023-09-19T07:57:03;5.38;;;1.67;;
9310;SDS011;4694;52.464;13.480;2023-09-19T07:59:31;5.57;;;1.95;;
9310;SDS011;4694;52.464;13.480;2023-09-19T08:01:57;2.13;;;1.30;;
9310;SDS011;4694;52.464;13.480;2023-09-19T08:04:27;3.42;;;1.77;;
9310;SDS011;4694;52.464;13.480;2023-09-19T08:07:00;4.65;;;2.03;;
9310;SDS011;4694;52.464;13.480;2023-09-19T08:09:29;4.20;;;1.73;;
9310;SDS011;4694;52.464;13.480;2023-09-19T08:11:58;3.13;;;1.80;;
9310;SDS011;4694;52.464;13.480;2023-09-19T08:14:29;4.63;;;2.38;;
9310;SDS011;4694;52.464;13.480;2023-09-19T08:16:57;2.38;;;1.77;;
9310;SDS011;4694;52.464;13.480;2023-09-19T08:19:28;5.17;;;2.17;;
9310;SDS011;4694;52.464;13.480;2023-09-19T08:21:57;3.25;;;2.15;;
9310;SDS011;4694;52.464;13.480;2023-09-19T08:24:24;2.47;;;1.58;;
9310;SDS011;4694;52.464;13.480;2023-09-19T08:26:53;4.78;;;1.58;;
9310;SDS011;4694;52.464;13.480;2023-09-19T08:29:20;3.28;;;1.65;;
9310;SDS011;4694;52.464;13.480;2023-09-19T08:31:52;4.07;;;1.60;;
9310;SDS011;4694;52.464;13.480;2023-09-19T08:34:19;7.07;;;2.33;;
9310;SDS011;4694;52.464;13.480;2023-09-19T08:36:49;7.72;;;2.15;;
9310;SDS011;4694;52.464;13.480;2023-09-19T08:39:17;2.13;;;1.45;;
9310;SDS011;4694;52.464;13.480;2023-09-19T08:41:44;3.78;;;2.50;;
9310;SDS011;4694;52.464;13.480;2023-09-19T08:44:11;4.45;;;2.33;;
9310;SDS011;4694;52.464;13.480;2023-09-19T08:46:38;5.20;;;2.88;;
9310;SDS011;4694;52.464;13.480;2023-09-19T08:49:13;4.70;;;2.83;;
9310;SDS011;4694;52.464;13.480;2023-09-19T08:52:01;7.47;;;3.00;;
9310;SDS011;4694;52.464;13.480;2023-09-19T08:54:35;8.30;;;2.20;;
9310;SDS011;4694;52.464;13.480;2023-09-19T08:57:06;3.90;;;2.17;;
9310;SDS011;4694;52.464;13.480;2023-09-19T08:59:35;3.55;;;2.08;;
9310;SDS011;4694;52.464;13.480;2023-09-19T09:02:07;4.93;;;2.17;;
9310;SDS011;4694;52.464;13.480;2023-09-19T09:04:38;5.50;;;2.88;;
9310;SDS011;4694;52.464;13.480;2023-09-19T09:07:08;2.72;;;1.90;;
9310;SDS011;4694;52.464;13.480;2023-09-19T09:12:07;6.63;;;2.08;;
9310;SDS011;4694;52.464;13.480;2023-09-19T09:14:37;6.03;;;3.58;;
9310;SDS011;4694;52.464;13.480;2023-09-19T09:17:04;4.85;;;2.13;;
9310;SDS011;4694;52.464;13.480;2023-09-19T09:19:37;3.60;;;1.55;;
9310;SDS011;4694;52.464;13.480;2023-09-19T09:22:08;4.10;;;1.60;;
9310;SDS011;4694;52.464;13.480;2023-09-19T09:24:37;3.13;;;1.90;;
9310;SDS011;4694;52.464;13.480;2023-09-19T09:27:21;3.65;;;1.80;;
9310;SDS011;4694;52.464;13.480;2023-09-19T09:29:52;8.93;;;1.85;;
9310;SDS011;4694;52.464;13.480;2023-09-19T09:32:21;2.55;;;1.40;;
9310;SDS011;4694;52.464;13.480;2023-09-19T09:34:50;3.88;;;1.52;;
9310;SDS011;4694;52.464;13.480;2023-09-19T09:37:19;3.58;;;1.77;;
9310;SDS011;4694;52.464;13.480;2023-09-19T09:39:51;5.50;;;1.80;;
9310;SDS011;4694;52.464;13.480;2023-09-19T09:42:30;4.80;;;2.28;;
9310;SDS011;4694;52.464;13.480;2023-09-19T09:45:13;2.95;;;2.60;;
9310;SDS011;4694;52.464;13.480;2023-09-19T09:47:41;5.50;;;2.47;;
9310;SDS011;4694;52.464;13.480;2023-09-19T09:50:15;4.93;;;2.28;;
9310;SDS011;4694;52.464;13.480;2023-09-19T09:53:03;9.55;;;2.65;;
9310;SDS011;4694;52.464;13.480;2023-09-19T09:55:36;4.72;;;2.72;;
9310;SDS011;4694;52.464;13.480;2023-09-19T09:58:24;3.20;;;2.13;;
9310;SDS011;4694;52.464;13.480;2023-09-19T10:00:54;9.27;;;2.63;;
9310;SDS011;4694;52.464;13.480;2023-09-19T10:03:30;5.75;;;2.95;;
9310;SDS011;4694;52.464;13.480;2023-09-19T10:06:00;4.93;;;2.65;;
9310;SDS011;4694;52.464;13.480;2023-09-19T10:08:35;7.15;;;2.78;;
9310;SDS011;4694;52.464;13.480;2023-09-19T10:11:14;6.95;;;2.97;;
9310;SDS011;4694;52.464;13.480;2023-09-19T10:13:41;5.20;;;2.10;;
9310;SDS011;4694;52.464;13.480;2023-09-19T10:16:12;7.28;;;2.70;;
9310;SDS011;4694;52.464;13.480;2023-09-19T10:18:44;8.23;;;2.03;;
9310;SDS011;4694;52.464;13.480;2023-09-19T10:21:14;4.05;;;2.17;;
9310;SDS011;4694;52.464;13.480;2023-09-19T10:23:48;6.60;;;2.08;;
9310;SDS011;4694;52.464;13.480;2023-09-19T10:26:23;4.93;;;2.60;;
9310;SDS011;4694;52.464;13.480;2023-09-19T10:28:51;6.22;;;2.75;;
9310;SDS011;4694;52.464;13.480;2023-09-19T10:31:20;7.28;;;1.90;;
9310;SDS011;4694;52.464;13.480;2023-09-19T10:33:49;6.43;;;2.28;;
9310;SDS011;4694;52.464;13.480;2023-09-19T10:36:16;4.60;;;2.22;;
9310;SDS011;4694;52.464;13.480;2023-09-19T10:38:49;4.15;;;2.25;;
9310;SDS011;4694;52.464;13.480;2023-09-19T10:41:20;5.05;;;2.25;;
9310;SDS011;4694;52.464;13.480;2023-09-19T10:43:48;3.60;;;2.67;;
9310;SDS011;4694;52.464;13.480;2023-09-19T10:46:24;6.15;;;2.50;;
9310;SDS011;4694;52.464;13.480;2023-09-19T10:48:52;3.28;;;1.90;;
9310;SDS011;4694;52.464;13.480;2023-09-19T10:51:19;4.95;;;1.80;;
9310;SDS011;4694;52.464;13.480;2023-09-19T10:53:51;4.85;;;1.92;;
9310;SDS011;4694;52.464;13.480;2023-09-19T10:56:24;5.47;;;2.50;;
9310;SDS011;4694;52.464;13.480;2023-09-19T10:59:08;3.30;;;1.88;;
9310;SDS011;4694;52.464;13.480;2023-09-19T11:01:45;5.20;;;2.35;;
9310;SDS011;4694;52.464;13.480;2023-09-19T11:04:23;4.63;;;1.95;;
9310;SDS011;4694;52.464;13.480;2023-09-19T11:07:01;5.88;;;2.35;;
9310;SDS011;4694;52.464;13.480;2023-09-19T11:09:47;8.60;;;2.35;;
9310;SDS011;4694;52.464;13.480;2023-09-19T11:21:41;3.75;;;1.63;;
9310;SDS011;4694;52.464;13.480;2023-09-19T11:24:30;7.03;;;3.25;;
9310;SDS011;4694;52.464;13.480;2023-09-19T11:27:14;7.30;;;2.25;;
9310;SDS011;4694;52.464;13.480;2023-09-19T11:29:43;7.03;;;1.83;;
9310;SDS011;4694;52.464;13.480;2023-09-19T11:32:10;6.43;;;2.13;;
9310;SDS011;4694;52.464;13.480;2023-09-19T11:34:37;5.32;;;1.42;;
9310;SDS011;4694;52.464;13.480;2023-09-19T11:40:33;7.45;;;1.45;;
9310;SDS011;4694;52.464;13.480;2023-09-19T11:43:01;5.05;;;1.98;;
9310;SDS011;4694;52.464;13.480;2023-09-19T11:46:02;5.57;;;1.95;;
9310;SDS011;4694;52.464;13.480;2023-09-19T11:48:30;3.85;;;1.73;;
9310;SDS011;4694;52.464;13.480;2023-09-19T11:51:00;8.77;;;1.55;;
9310;SDS011;4694;52.464;13.480;2023-09-19T11:53:33;6.00;;;1.52;;
9310;SDS011;4694;52.464;13.480;2023-09-19T11:56:01;6.67;;;2.63;;
9310;SDS011;4694;52.464;13.480;2023-09-19T11:58:33;6.13;;;3.05;;
9310;SDS011;4694;52.464;13.480;2023-09-19T12:01:01;6.72;;;1.55;;
9310;SDS011;4694;52.464;13.480;2023-09-19T12:03:45;4.28;;;2.17;;
9310;SDS011;4694;52.464;13.480;2023-09-19T12:06:14;3.38;;;1.42;;
9310;SDS011;4694;52.464;13.480;2023-09-19T12:08:44;4.72;;;1.67;;
9310;SDS011;4694;52.464;13.480;2023-09-19T12:11:15;7.13;;;2.35;;
9310;SDS011;4694;52.464;13.480;2023-09-19T12:13:47;5.38;;;1.50;;
9310;SDS011;4694;52.464;13.480;2023-09-19T12:16:19;6.85;;;1.85;;
9310;SDS011;4694;52.464;13.480;2023-09-19T12:18:49;4.53;;;1.17;;
9310;SDS011;4694;52.464;13.480;2023-09-19T12:21:29;4.10;;;1.40;;
9310;SDS011;4694;52.464;13.480;2023-09-19T12:23:58;6.85;;;1.65;;
9310;SDS011;4694;52.464;13.480;2023-09-19T12:26:39;5.45;;;1.73;;
9310;SDS011;4694;52.464;13.480;2023-09-19T12:29:11;5.22;;;1.27;;
9310;SDS011;4694;52.464;13.480;2023-09-19T12:31:46;2.35;;;1.38;;
9310;SDS011;4694;52.464;13.480;2023-09-19T12:34:20;4.03;;;1.23;;
9310;SDS011;4694;52.464;13.480;2023-09-19T12:37:01;4.90;;;1.38;;
9310;SDS011;4694;52.464;13.480;2023-09-19T12:39:31;6.03;;;1.55;;
9310;SDS011;4694;52.464;13.480;2023-09-19T12:41:57;5.97;;;1.48;;
9310;SDS011;4694;52.464;13.480;2023-09-19T12:44:26;1.92;;;1.00;;
9310;SDS011;4694;52.464;13.480;2023-09-19T12:46:53;2.85;;;1.92;;
9310;SDS011;4694;52.464;13.480;2023-09-19T12:49:20;6.28;;;1.38;;
9310;SDS011;4694;52.464;13.480;2023-09-19T12:51:47;2.55;;;1.25;;
9310;SDS011;4694;52.464;13.480;2023-09-19T12:54:15;3.83;;;1.02;;
9310;SDS011;4694;52.464;13.480;2023-09-19T12:56:43;2.83;;;1.30;;
9310;SDS011;4694;52.464;13.480;2023-09-19T12:59:12;4.68;;;1.55;;
9310;SDS011;4694;52.464;13.480;2023-09-19T13:01:43;5.78;;;1.23;;
9310;SDS011;4694;52.464;13.480;2023-09-19T13:04:14;5.93;;;1.88;;
9310;SDS011;4694;52.464;13.480;2023-09-19T13:06:45;2.00;;;1.27;;
9310;SDS011;4694;52.464;13.480;2023-09-19T13:09:13;6.15;;;1.23;;
9310;SDS011;4694;52.464;13.480;2023-09-19T13:11:41;4.43;;;1.15;;
9310;SDS011;4694;52.464;13.480;2023-09-19T13:14:13;2.83;;;1.00;;
9310;SDS011;4694;52.464;13.480;2023-09-19T13:16:53;1.40;;;0.80;;
9310;SDS011;4694;52.464;13.480;2023-09-19T13:19:34;3.75;;;2.20;;
9310;SDS011;4694;52.464;13.480;2023-09-19T13:22:06;3.88;;;1.73;;
9310;SDS011;4694;52.464;13.480;2023-09-19T13:25:03;2.95;;;1.02;;
9310;SDS011;4694;52.464;13.480;2023-09-19T13:27:31;3.53;;;1.17;;
9310;SDS011;4694;52.464;13.480;2023-09-19T13:29:59;1.63;;;1.17;;
9310;SDS011;4694;52.464;13.480;2023-09-19T13:32:29;4.85;;;0.70;;
9310;SDS011;4694;52.464;13.480;2023-09-19T13:34:55;1.52;;;0.93;;
9310;SDS011;4694;52.464;13.480;2023-09-19T13:37:22;2.80;;;0.90;;
9310;SDS011;4694;52.464;13.480;2023-09-19T13:39:49;4.18;;;0.85;;
9310;SDS011;4694;52.464;13.480;2023-09-19T13:42:16;2.42;;;1.10;;
9310;SDS011;4694;52.464;13.480;2023-09-19T13:44:43;6.88;;;1.52;;
9310;SDS011;4694;52.464;13.480;2023-09-19T13:47:10;4.82;;;1.88;;
9310;SDS011;4694;52.464;13.480;2023-09-19T13:49:41;5.70;;;1.17;;
9310;SDS011;4694;52.464;13.480;2023-09-19T13:52:09;5.23;;;1.20;;
9310;SDS011;4694;52.464;13.480;2023-09-19T13:54:38;2.30;;;0.80;;
9310;SDS011;4694;52.464;13.480;2023-09-19T13:57:04;9.32;;;2.05;;
9310;SDS011;4694;52.464;13.480;2023-09-19T13:59:32;3.88;;;1.52;;
9310;SDS011;4694;52.464;13.480;2023-09-19T14:01:59;17.83;;;1.50;;
9310;SDS011;4694;52.464;13.480;2023-09-19T14:04:25;4.97;;;1.58;;
9310;SDS011;4694;52.464;13.480;2023-09-19T14:06:55;5.10;;;1.40;;
9310;SDS011;4694;52.464;13.480;2023-09-19T14:09:22;9.25;;;1.48;;
9310;SDS011;4694;52.464;13.480;2023-09-19T14:11:49;2.47;;;0.95;;
9310;SDS011;4694;52.464;13.480;2023-09-19T14:14:17;1.23;;;0.73;;
9310;SDS011;4694;52.464;13.480;2023-09-19T14:16:44;3.65;;;1.27;;
9310;SDS011;4694;52.464;13.480;2023-09-19T14:19:10;2.53;;;1.10;;
9310;SDS011;4694;52.464;13.480;2023-09-19T14:21:38;3.17;;;0.90;;
9310;SDS011;4694;52.464;13.480;2023-09-19T14:24:07;2.75;;;1.00;;
9310;SDS011;4694;52.464;13.480;2023-09-19T14:26:34;3.13;;;1.30;;
9310;SDS011;4694;52.464;13.480;2023-09-19T14:29:01;6.20;;;1.13;;
9310;SDS011;4694;52.464;13.480;2023-09-19T14:31:28;3.55;;;1.25;;
9310;SDS011;4694;52.464;13.480;2023-09-19T14:33:55;5.22;;;1.38;;
9310;SDS011;4694;52.464;13.480;2023-09-19T14:36:22;3.90;;;0.90;;
9310;SDS011;4694;52.464;13.480;2023-09-19T14:38:51;6.35;;;1.40;;
9310;SDS011;4694;52.464;13.480;2023-09-19T14:41:21;4.18;;;1.77;;
9310;SDS011;4694;52.464;13.480;2023-09-19T14:43:50;5.55;;;1.15;;
9310;SDS011;4694;52.464;13.480;2023-09-19T14:46:17;3.10;;;0.95;;
9310;SDS011;4694;52.464;13.480;2023-09-19T14:48:44;2.83;;;0.90;;
9310;SDS011;4694;52.464;13.480;2023-09-19T14:51:12;3.17;;;1.63;;
9310;SDS011;4694;52.464;13.480;2023-09-19T14:53:39;3.30;;;1.50;;
9310;SDS011;4694;52.464;13.480;2023-09-19T14:56:07;2.95;;;1.00;;
9310;SDS011;4694;52.464;13.480;2023-09-19T14:58:36;2.90;;;1.17;;
9310;SDS011;4694;52.464;13.480;2023-09-19T15:01:04;5.80;;;1.87;;
9310;SDS011;4694;52.464;13.480;2023-09-19T15:03:31;4.22;;;1.38;;
9310;SDS011;4694;52.464;13.480;2023-09-19T15:05:59;3.40;;;1.20;;
9310;SDS011;4694;52.464;13.480;2023-09-19T15:08:26;6.63;;;2.20;;
9310;SDS011;4694;52.464;13.480;2023-09-19T15:10:53;3.72;;;1.27;;
9310;SDS011;4694;52.464;13.480;2023-09-19T15:13:20;4.80;;;1.65;;
9310;SDS011;4694;52.464;13.480;2023-09-19T15:15:49;3.45;;;1.20;;
9310;SDS011;4694;52.464;13.480;2023-09-19T15:18:15;4.30;;;1.60;;
9310;SDS011;4694;52.464;13.480;2023-09-19T15:20:43;2.88;;;1.00;;
9310;SDS011;4694;52.464;13.480;2023-09-19T15:23:09;8.30;;;1.92;;
9310;SDS011;4694;52.464;13.480;2023-09-19T15:25:38;5.65;;;1.70;;
9310;SDS011;4694;52.464;13.480;2023-09-19T15:28:06;3.92;;;1.77;;
9310;SDS011;4694;52.464;13.480;2023-09-19T15:30:36;5.03;;;1.40;;
9310;SDS011;4694;52.464;13.480;2023-09-19T15:33:04;3.35;;;1.70;;